Time;durP1;ratioP1;P1;durP2;ratioP2;P2;SDS_P1;SDS_P2;PMS_P1;PMS_P2;Temp;Humidity;BMP_temperature;BMP_pressure;BME280_temperature;BME280_humidity;BME280_pressure;Samples;Min_cycle;Max_cycle;Signal;HPM_P1;HPM_P2
2023/06/04 00:01:03;;;;;;;70.82;50.92;;;18.80;57.90;;;;;;4969695;28;93977;-72
2023/06/04 00:03:30;;;;;;;72.40;50.90;;;18.70;57.80;;;;;;4967577;28;94650;-70
2023/06/04 00:05:56;;;;;;;71.70;50.80;;;18.70;58.00;;;;;;4966931;28;89122;-72
2023/06/04 00:08:21;;;;;;;70.90;50.63;;;18.70;57.80;;;;;;4974969;28;90371;-72
2023/06/04 00:10:47;;;;;;;71.30;50.85;;;18.70;57.80;;;;;;4974268;28;89927;-72
2023/06/04 00:13:13;;;;;;;70.65;50.72;;;18.70;57.80;;;;;;4954568;28;88809;-74
2023/06/04 00:15:38;;;;;;;71.10;51.00;;;18.80;57.80;;;;;;4961518;28;89711;-73
2023/06/04 00:18:04;;;;;;;71.63;50.70;;;18.80;57.80;;;;;;4948839;28;92307;-71
2023/06/04 00:20:30;;;;;;;70.70;50.88;;;18.70;57.90;;;;;;4971163;28;89202;-71
2023/06/04 00:22:55;;;;;;;70.47;50.92;;;18.60;58.10;;;;;;4965717;28;90027;-70
2023/06/04 00:25:21;;;;;;;70.80;50.83;;;18.60;58.10;;;;;;4945492;28;88656;-71
2023/06/04 00:27:47;;;;;;;70.45;50.78;;;18.70;58.50;;;;;;4964314;28;90179;-72
2023/06/04 00:30:13;;;;;;;70.93;50.72;;;18.60;58.30;;;;;;4949681;28;89672;-72
2023/06/04 00:32:39;;;;;;;71.25;50.50;;;18.60;58.50;;;;;;4966622;28;90383;-71
2023/06/04 00:35:06;;;;;;;70.45;50.65;;;18.50;58.50;;;;;;4972109;28;89144;-72
2023/06/04 00:37:31;;;;;;;70.50;50.55;;;18.50;58.40;;;;;;4974431;28;88975;-70
2023/06/04 00:39:57;;;;;;;71.40;50.55;;;18.50;58.50;;;;;;4975923;28;89090;-72
2023/06/04 00:42:23;;;;;;;70.43;50.63;;;18.60;58.40;;;;;;4969762;28;89048;-72
2023/06/04 00:44:49;;;;;;;71.15;50.78;;;18.50;58.60;;;;;;4962458;28;88877;-71
2023/06/04 00:47:15;;;;;;;71.30;50.92;;;18.50;58.50;;;;;;4967190;28;88947;-73
2023/06/04 00:49:41;;;;;;;70.35;50.78;;;18.50;58.40;;;;;;4961550;28;89159;-71
2023/06/04 00:52:17;;;;;;;70.25;50.55;;;18.50;58.50;;;;;;4963871;28;91194;-71
2023/06/04 00:54:43;;;;;;;69.90;50.70;;;18.50;58.40;;;;;;4952110;28;89254;-70
2023/06/04 00:57:08;;;;;;;70.10;50.58;;;18.40;58.40;;;;;;4951183;28;92228;-72
2023/06/04 00:59:38;;;;;;;70.00;50.58;;;18.40;58.50;;;;;;4967288;28;89971;-73
2023/06/04 01:02:12;;;;;;;70.35;50.72;;;18.50;58.50;;;;;;4961474;28;90271;-73
2023/06/04 01:04:54;;;;;;;69.82;50.58;;;18.40;58.60;;;;;;4969180;28;89536;-73
2023/06/04 01:07:22;;;;;;;69.60;50.38;;;18.30;58.80;;;;;;4966260;28;89508;-72
2023/06/04 01:09:49;;;;;;;70.65;50.55;;;18.30;58.70;;;;;;4962174;28;89375;-71
2023/06/04 01:12:15;;;;;;;69.80;50.53;;;18.30;58.80;;;;;;4965156;28;88904;-72
2023/06/04 01:14:41;;;;;;;70.85;50.35;;;18.30;59.50;;;;;;4956886;28;88738;-70
2023/06/04 01:17:46;;;;;;;70.50;50.40;;;18.20;59.10;;;;;;4956617;28;91545;-70
2023/06/04 01:20:15;;;;;;;70.10;50.33;;;18.20;59.20;;;;;;4952492;28;89693;-72
2023/06/04 01:22:47;;;;;;;69.57;50.53;;;18.20;59.10;;;;;;4960500;28;91180;-72
2023/06/04 01:25:20;;;;;;;69.60;50.35;;;18.20;59.80;;;;;;4964226;28;90146;-73
2023/06/04 01:27:52;;;;;;;69.88;50.85;;;18.20;59.20;;;;;;4963650;28;90085;-73
2023/06/04 01:30:22;;;;;;;70.00;50.50;;;18.20;59.30;;;;;;4964303;28;89493;-72
2023/06/04 01:32:49;;;;;;;70.65;50.45;;;18.20;59.30;;;;;;4972722;28;89045;-72
2023/06/04 01:35:14;;;;;;;69.18;50.33;;;18.10;59.40;;;;;;4969614;28;89255;-71
2023/06/04 01:37:40;;;;;;;69.65;50.63;;;18.10;59.50;;;;;;4970000;28;88923;-71
2023/06/04 01:40:08;;;;;;;69.30;50.22;;;18.10;59.50;;;;;;4967163;28;88620;-72
2023/06/04 01:42:33;;;;;;;69.20;50.35;;;18.00;59.70;;;;;;4969378;28;89892;-71
2023/06/04 01:44:59;;;;;;;72.40;50.85;;;18.00;59.60;;;;;;4966752;28;89328;-71
2023/06/04 01:47:25;;;;;;;69.68;50.25;;;18.00;59.70;;;;;;4962582;28;90741;-73
2023/06/04 01:49:51;;;;;;;69.07;50.55;;;18.00;59.70;;;;;;4973368;28;90038;-72
2023/06/04 01:52:16;;;;;;;69.43;50.38;;;18.00;59.70;;;;;;4973586;28;89063;-72
2023/06/04 01:54:42;;;;;;;69.40;50.40;;;18.00;59.80;;;;;;4971198;28;88876;-71
2023/06/04 01:57:09;;;;;;;69.53;50.50;;;17.90;60.00;;;;;;4973737;28;89208;-72
2023/06/04 01:59:36;;;;;;;69.20;50.25;;;18.00;60.00;;;;;;4953730;28;89001;-72
2023/06/04 02:02:02;;;;;;;69.82;50.45;;;17.90;60.00;;;;;;4968717;28;89654;-71
2023/06/04 02:04:28;;;;;;;70.03;50.45;;;17.90;60.00;;;;;;4975197;28;88176;-71
2023/06/04 02:06:54;;;;;;;69.53;50.55;;;17.90;60.20;;;;;;4969290;28;89151;-72
2023/06/04 02:09:20;;;;;;;70.35;50.78;;;17.90;60.20;;;;;;4977300;28;89452;-72
2023/06/04 02:11:46;;;;;;;69.32;50.53;;;17.80;60.50;;;;;;4962763;28;90651;-72
2023/06/04 02:14:11;;;;;;;70.35;50.75;;;17.80;60.40;;;;;;4972310;28;89291;-71
2023/06/04 02:16:37;;;;;;;72.13;50.58;;;17.80;60.80;;;;;;4974856;28;91677;-72
2023/06/04 02:19:03;;;;;;;69.22;50.55;;;17.70;60.70;;;;;;4978348;28;90697;-70
2023/06/04 02:21:29;;;;;;;69.63;50.45;;;17.70;60.90;;;;;;4955623;28;89093;-71
2023/06/04 02:23:54;;;;;;;68.85;50.38;;;17.70;61.00;;;;;;4971305;28;92013;-71
2023/06/04 02:26:23;;;;;;;69.00;50.42;;;17.70;61.00;;;;;;4973293;28;89619;-72
2023/06/04 02:28:48;;;;;;;69.10;50.55;;;17.70;61.10;;;;;;4968683;28;88951;-72
2023/06/04 02:31:14;;;;;;;68.72;50.50;;;17.70;61.10;;;;;;4959659;28;91720;-72
2023/06/04 02:33:40;;;;;;;68.80;50.33;;;17.70;61.20;;;;;;4975689;28;88606;-69
2023/06/04 02:36:06;;;;;;;70.43;50.55;;;17.70;61.20;;;;;;4971807;28;91937;-72
2023/06/04 02:38:31;;;;;;;68.95;50.45;;;17.60;61.10;;;;;;4976270;28;89697;-73
2023/06/04 02:40:57;;;;;;;70.00;50.10;;;17.60;61.30;;;;;;4974655;28;89230;-71
2023/06/04 02:43:22;;;;;;;69.38;50.25;;;17.60;61.50;;;;;;4971604;28;89264;-72
2023/06/04 02:45:48;;;;;;;68.93;50.33;;;17.60;61.50;;;;;;4967801;28;89231;-72
2023/06/04 02:48:14;;;;;;;69.78;50.25;;;17.50;61.60;;;;;;4968788;28;89077;-71
2023/06/04 02:50:42;;;;;;;69.00;50.47;;;17.60;61.60;;;;;;4970938;28;89134;-70
2023/06/04 02:53:08;;;;;;;69.05;50.40;;;17.50;61.60;;;;;;4968665;28;88006;-72
2023/06/04 02:55:33;;;;;;;69.05;50.38;;;17.50;62.00;;;;;;4968782;28;90079;-72
2023/06/04 02:58:00;;;;;;;68.68;50.03;;;17.40;62.10;;;;;;4968338;28;89711;-71
2023/06/04 03:00:26;;;;;;;68.80;50.22;;;17.50;62.10;;;;;;4970203;28;90394;-71
2023/06/04 03:02:51;;;;;;;69.50;50.35;;;17.50;62.00;;;;;;4966891;28;89213;-72
2023/06/04 03:05:17;;;;;;;68.95;50.22;;;17.40;62.20;;;;;;4968426;28;90337;-70
2023/06/04 03:07:45;;;;;;;68.40;50.15;;;17.40;62.10;;;;;;4952464;28;90732;-71
2023/06/04 03:10:13;;;;;;;69.53;50.13;;;17.40;62.20;;;;;;4967870;28;90125;-70
2023/06/04 03:12:38;;;;;;;69.65;49.95;;;17.40;62.30;;;;;;4976375;28;89313;-71
2023/06/04 03:15:05;;;;;;;68.40;50.10;;;17.40;62.50;;;;;;4970821;28;89925;-71
2023/06/04 03:17:34;;;;;;;68.57;50.08;;;17.30;62.80;;;;;;4969456;28;88900;-72
2023/06/04 03:20:00;;;;;;;68.40;50.13;;;17.30;62.80;;;;;;4966483;28;88705;-72
2023/06/04 03:22:26;;;;;;;68.68;50.13;;;17.30;62.80;;;;;;4970892;28;90168;-70
2023/06/04 03:24:54;;;;;;;68.68;50.17;;;17.30;62.80;;;;;;4968517;28;89844;-72
2023/06/04 03:27:20;;;;;;;68.50;50.05;;;17.30;62.80;;;;;;4969568;28;90046;-72
2023/06/04 03:29:46;;;;;;;68.47;50.05;;;17.30;62.80;;;;;;4974439;28;90258;-73
2023/06/04 03:32:12;;;;;;;71.93;50.35;;;17.30;62.90;;;;;;4969574;28;89238;-71
2023/06/04 03:34:38;;;;;;;67.93;50.03;;;17.20;63.10;;;;;;4970569;28;88782;-72
2023/06/04 03:37:04;;;;;;;70.18;50.25;;;17.20;63.30;;;;;;4970202;28;89539;-71
2023/06/04 03:39:29;;;;;;;68.82;50.10;;;17.20;63.30;;;;;;4968286;28;89584;-72
2023/06/04 03:41:55;;;;;;;69.88;50.30;;;17.20;63.30;;;;;;4972099;28;88861;-72
2023/06/04 03:44:22;;;;;;;68.47;50.10;;;17.20;63.40;;;;;;4972781;28;90397;-71
2023/06/04 03:46:47;;;;;;;68.10;50.05;;;17.20;63.30;;;;;;4974951;28;89090;-72
2023/06/04 03:49:14;;;;;;;67.70;49.97;;;17.10;63.40;;;;;;4972091;28;90495;-72
2023/06/04 03:51:40;;;;;;;68.30;50.05;;;17.10;63.50;;;;;;4972175;28;90066;-72
2023/06/04 03:54:06;;;;;;;69.25;50.30;;;17.10;63.80;;;;;;4974399;28;90323;-72
2023/06/04 03:56:32;;;;;;;68.18;50.10;;;17.10;63.80;;;;;;4971603;28;90177;-72
2023/06/04 03:58:58;;;;;;;69.25;50.30;;;17.10;63.90;;;;;;4974730;28;89196;-72
2023/06/04 04:01:24;;;;;;;68.53;50.25;;;17.00;63.90;;;;;;4970429;28;89204;-72
2023/06/04 04:03:51;;;;;;;71.45;50.17;;;17.00;64.10;;;;;;4972083;28;90532;-72
2023/06/04 04:06:17;;;;;;;69.38;50.10;;;17.00;64.30;;;;;;4950026;28;89414;-71
2023/06/04 04:08:43;;;;;;;68.28;50.03;;;17.00;64.30;;;;;;4968384;28;89373;-73
2023/06/04 04:11:09;;;;;;;68.65;50.40;;;17.00;64.40;;;;;;4968205;28;89826;-71
2023/06/04 04:13:35;;;;;;;68.05;50.13;;;17.00;64.60;;;;;;4968823;28;90478;-72
2023/06/04 04:16:01;;;;;;;68.93;50.15;;;17.00;64.40;;;;;;4970390;28;89400;-72
2023/06/04 04:18:27;;;;;;;68.55;50.10;;;17.00;64.70;;;;;;4965367;28;88700;-72
2023/06/04 04:20:52;;;;;;;69.07;50.40;;;16.90;64.80;;;;;;4953340;28;89110;-72
2023/06/04 04:23:18;;;;;;;68.88;50.30;;;17.00;64.80;;;;;;4964899;28;89643;-72
2023/06/04 04:25:44;;;;;;;68.05;49.85;;;17.00;64.60;;;;;;4964488;28;89135;-71
2023/06/04 04:28:09;;;;;;;68.65;50.50;;;17.00;64.50;;;;;;4968020;28;89735;-70
2023/06/04 04:30:36;;;;;;;69.20;50.50;;;17.00;64.40;;;;;;4970824;28;88335;-72
2023/06/04 04:33:04;;;;;;;68.32;50.30;;;17.00;64.30;;;;;;4965537;28;90618;-72
2023/06/04 04:35:32;;;;;;;69.25;50.42;;;17.10;64.40;;;;;;4950838;28;90886;-72
2023/06/04 04:37:58;;;;;;;68.93;50.30;;;17.10;64.30;;;;;;4967750;28;90079;-72
2023/06/04 04:40:24;;;;;;;69.95;50.45;;;17.20;64.10;;;;;;4967708;28;89539;-71
2023/06/04 04:42:50;;;;;;;68.68;50.22;;;17.20;64.00;;;;;;4967835;28;89162;-72
2023/06/04 04:45:17;;;;;;;68.47;50.38;;;17.20;63.80;;;;;;4967762;28;89498;-71
2023/06/04 04:47:43;;;;;;;69.80;50.55;;;17.20;63.80;;;;;;4971806;28;88917;-71
2023/06/04 04:50:08;;;;;;;70.18;50.58;;;17.30;63.70;;;;;;4970249;28;88768;-71
2023/06/04 04:52:34;;;;;;;69.05;50.35;;;17.30;63.40;;;;;;4959740;28;94286;-72
2023/06/04 04:55:00;;;;;;;69.57;50.25;;;17.30;63.40;;;;;;4972639;28;89779;-70
2023/06/04 04:57:26;;;;;;;68.90;50.28;;;17.30;63.40;;;;;;4967498;28;89091;-73
2023/06/04 04:59:51;;;;;;;69.00;50.42;;;17.30;63.30;;;;;;4969845;28;90417;-70
2023/06/04 05:02:17;;;;;;;69.13;50.25;;;17.30;63.40;;;;;;4968950;28;90748;-72
2023/06/04 05:04:43;;;;;;;69.47;50.25;;;17.30;63.50;;;;;;4951391;28;92382;-71
2023/06/04 05:07:08;;;;;;;68.70;50.15;;;17.30;63.20;;;;;;4969317;28;89339;-72
2023/06/04 05:09:34;;;;;;;69.03;50.33;;;17.30;63.20;;;;;;4955952;28;89752;-72
2023/06/04 05:12:00;;;;;;;69.03;50.42;;;17.30;63.30;;;;;;4962325;28;90507;-71
2023/06/04 05:14:25;;;;;;;70.28;50.58;;;17.30;63.60;;;;;;4967011;28;89112;-73
2023/06/04 05:16:51;;;;;;;68.65;50.17;;;17.30;63.30;;;;;;4965329;28;88770;-71
2023/06/04 05:19:17;;;;;;;68.70;50.28;;;17.40;63.30;;;;;;4975164;28;88138;-73
2023/06/04 05:21:44;;;;;;;68.90;50.28;;;17.40;63.10;;;;;;4972817;28;89660;-72
2023/06/04 05:24:10;;;;;;;69.00;50.50;;;17.50;62.90;;;;;;4972943;28;89373;-70
2023/06/04 05:26:37;;;;;;;69.70;50.50;;;17.50;62.70;;;;;;4970354;28;89920;-71
2023/06/04 05:29:04;;;;;;;69.38;50.28;;;17.50;62.60;;;;;;4957104;28;89573;-72
2023/06/04 05:31:33;;;;;;;68.70;50.42;;;17.50;62.90;;;;;;4972520;28;91561;-73
2023/06/04 05:34:01;;;;;;;69.47;50.47;;;17.60;62.80;;;;;;4978047;28;89067;-71
2023/06/04 05:36:27;;;;;;;69.38;50.58;;;17.60;62.80;;;;;;4974967;28;91235;-70
2023/06/04 05:38:57;;;;;;;69.65;50.42;;;17.70;62.60;;;;;;4975283;28;88869;-72
2023/06/04 05:41:24;;;;;;;69.10;50.38;;;17.70;62.40;;;;;;4972647;28;89545;-71
2023/06/04 05:43:50;;;;;;;70.50;50.55;;;17.60;62.50;;;;;;4963381;28;90984;-69
2023/06/04 05:46:16;;;;;;;69.85;50.65;;;17.70;62.40;;;;;;4961407;28;90647;-71
2023/06/04 05:48:41;;;;;;;70.05;50.63;;;17.80;62.20;;;;;;4942527;28;89173;-71
2023/06/04 05:51:07;;;;;;;69.57;50.67;;;17.80;62.20;;;;;;4960616;28;90806;-72
2023/06/04 05:53:33;;;;;;;71.68;50.70;;;17.80;61.90;;;;;;4959735;28;90643;-71
2023/06/04 05:55:59;;;;;;;70.57;50.95;;;17.80;62.00;;;;;;4962939;28;89388;-71
2023/06/04 05:58:24;;;;;;;69.28;50.55;;;17.80;61.90;;;;;;4959803;28;89183;-71
2023/06/04 06:00:51;;;;;;;71.38;50.85;;;17.90;61.80;;;;;;4943684;28;91771;-72
2023/06/04 06:03:16;;;;;;;69.13;50.45;;;17.90;61.90;;;;;;4963371;28;90102;-72
2023/06/04 06:05:43;;;;;;;70.47;50.75;;;17.90;61.80;;;;;;4943307;28;89251;-70
2023/06/04 06:08:09;;;;;;;69.85;50.90;;;18.00;61.60;;;;;;4958507;28;88336;-72
2023/06/04 06:10:35;;;;;;;69.57;50.72;;;18.00;61.50;;;;;;4960507;28;89717;-70
2023/06/04 06:13:00;;;;;;;70.38;50.78;;;18.00;61.30;;;;;;4960231;28;89304;-72
2023/06/04 06:15:27;;;;;;;70.45;50.85;;;18.00;61.40;;;;;;4961982;28;90269;-73
2023/06/04 06:17:52;;;;;;;71.85;50.88;;;18.10;61.40;;;;;;4953918;28;89746;-72
2023/06/04 06:20:18;;;;;;;72.03;51.17;;;18.00;61.30;;;;;;4968124;28;89532;-73
2023/06/04 06:22:44;;;;;;;70.85;50.70;;;18.00;62.20;;;;;;4979151;28;89485;-71
2023/06/04 06:25:12;;;;;;;70.45;51.05;;;18.10;61.60;;;;;;4975929;28;90561;-74
2023/06/04 06:27:39;;;;;;;70.20;50.85;;;18.10;61.60;;;;;;4948008;28;89921;-74
2023/06/04 06:30:07;;;;;;;70.45;50.75;;;18.10;61.50;;;;;;4945114;28;91016;-74
2023/06/04 06:32:32;;;;;;;70.40;50.70;;;18.20;61.60;;;;;;4962309;28;88729;-73
2023/06/04 06:34:58;;;;;;;73.10;50.95;;;18.20;61.40;;;;;;4961836;28;90464;-73
2023/06/04 06:37:23;;;;;;;74.47;51.42;;;18.30;61.30;;;;;;4966576;28;88952;-73
2023/06/04 06:39:49;;;;;;;71.38;51.17;;;18.30;61.00;;;;;;4967047;28;91082;-73
2023/06/04 06:42:17;;;;;;;71.95;51.15;;;18.30;60.70;;;;;;4960165;28;89414;-74
2023/06/04 06:44:44;;;;;;;73.30;51.42;;;18.30;60.40;;;;;;4965885;28;90222;-74
2023/06/04 06:47:13;;;;;;;74.95;51.60;;;18.40;60.20;;;;;;4962930;28;89294;-74
2023/06/04 06:49:42;;;;;;;72.13;51.50;;;18.40;60.00;;;;;;4964517;28;89107;-74
2023/06/04 06:52:08;;;;;;;71.95;51.72;;;18.40;59.80;;;;;;4961654;28;89180;-73
2023/06/04 06:54:33;;;;;;;73.35;51.75;;;18.40;59.60;;;;;;4945701;28;89576;-74
2023/06/04 06:56:59;;;;;;;72.75;51.55;;;18.50;59.50;;;;;;4965995;28;89002;-74
2023/06/04 06:59:25;;;;;;;73.60;51.75;;;18.50;59.30;;;;;;4965452;28;90741;-74
2023/06/04 07:01:51;;;;;;;73.70;51.67;;;18.50;59.00;;;;;;4956602;28;90020;-72
2023/06/04 07:04:17;;;;;;;72.50;51.72;;;18.50;59.00;;;;;;4954754;28;90678;-75
2023/06/04 07:06:43;;;;;;;72.88;51.75;;;18.60;59.00;;;;;;4990574;23;91778;-54
2023/06/04 07:09:09;;;;;;;72.85;51.60;;;18.60;58.70;;;;;;4979587;28;90836;-48
2023/06/04 07:11:35;;;;;;;72.57;51.22;;;18.70;58.80;;;;;;4969327;28;90593;-55
2023/06/04 07:14:04;;;;;;;73.63;51.75;;;18.70;59.00;;;;;;4969080;28;91629;-55
2023/06/04 07:16:30;;;;;;;72.50;51.67;;;18.80;58.90;;;;;;4975453;28;89911;-53
2023/06/04 07:18:56;;;;;;;73.40;51.75;;;18.80;58.50;;;;;;4977047;28;90723;-57
2023/06/04 07:21:23;;;;;;;73.57;51.88;;;18.80;58.40;;;;;;4969655;28;90312;-56
2023/06/04 07:23:50;;;;;;;74.55;52.13;;;18.90;58.80;;;;;;4977665;28;89913;-56
2023/06/04 07:26:20;;;;;;;73.53;51.90;;;18.90;61.10;;;;;;4979678;28;90112;-55
2023/06/04 07:28:45;;;;;;;74.03;51.80;;;18.90;63.40;;;;;;4982761;28;91327;-55
2023/06/04 07:31:14;;;;;;;73.32;52.05;;;18.90;67.20;;;;;;4976996;28;91734;-57
2023/06/04 07:33:43;;;;;;;75.20;51.75;;;18.90;66.90;;;;;;4980040;28;91113;-57
2023/06/04 07:36:15;;;;;;;73.55;51.60;;;18.90;64.30;;;;;;4979495;28;90827;-51
2023/06/04 07:38:40;;;;;;;73.13;52.03;;;18.90;61.50;;;;;;4967700;28;90617;-55
2023/06/04 07:41:06;;;;;;;74.65;52.15;;;19.00;58.80;;;;;;4970192;28;91256;-46
2023/06/04 07:43:35;;;;;;;73.72;51.83;;;19.00;57.40;;;;;;4972239;28;90135;-52
2023/06/04 07:46:01;;;;;;;72.85;51.65;;;19.00;56.80;;;;;;4971049;28;89107;-54
2023/06/04 07:48:30;;;;;;;72.47;51.67;;;19.00;55.40;;;;;;4968870;28;90846;-54
2023/06/04 07:50:57;;;;;;;72.28;51.30;;;19.00;54.60;;;;;;4963400;28;91122;-57
2023/06/04 07:53:23;;;;;;;73.00;51.80;;;19.00;54.60;;;;;;4971920;28;91423;-53
2023/06/04 07:55:49;;;;;;;74.20;51.45;;;19.00;54.10;;;;;;4975827;28;90678;-56
2023/06/04 07:58:15;;;;;;;72.53;51.60;;;19.10;53.50;;;;;;4963529;28;89550;-55
2023/06/04 08:00:41;;;;;;;72.53;51.35;;;19.10;53.10;;;;;;4966035;28;94499;-56
2023/06/04 08:03:06;;;;;;;74.00;51.72;;;19.10;52.60;;;;;;4966918;28;91736;-56
2023/06/04 08:05:34;;;;;;;71.97;51.08;;;19.20;52.90;;;;;;4964238;28;90179;-53
2023/06/04 08:08:00;;;;;;;72.88;51.53;;;19.10;52.20;;;;;;4971077;28;90715;-56
2023/06/04 08:10:25;;;;;;;74.82;51.85;;;19.20;52.20;;;;;;4965917;28;89810;-55
2023/06/04 08:12:52;;;;;;;79.95;52.08;;;19.20;52.20;;;;;;4971597;28;90484;-50
2023/06/04 08:15:18;;;;;;;78.40;52.40;;;19.20;52.30;;;;;;4968806;22;94888;-70
2023/06/04 08:17:43;;;;;;;84.80;53.20;;;19.20;52.30;;;;;;4940793;28;91387;-71
2023/06/04 08:20:09;;;;;;;80.03;52.63;;;19.30;52.10;;;;;;4935850;28;90823;-71
2023/06/04 08:22:35;;;;;;;78.57;52.67;;;19.30;51.80;;;;;;4937664;28;89342;-73
2023/06/04 08:25:01;;;;;;;77.00;51.95;;;19.40;51.50;;;;;;4941299;28;89409;-75
2023/06/04 08:27:26;;;;;;;75.60;52.42;;;19.40;51.10;;;;;;4933891;28;89605;-71
2023/06/04 08:29:52;;;;;;;78.00;52.67;;;19.40;50.80;;;;;;4926061;28;90474;-71
2023/06/04 08:32:18;;;;;;;76.00;52.92;;;19.50;51.00;;;;;;4930437;28;89651;-72
2023/06/04 08:34:44;;;;;;;76.57;52.53;;;19.50;51.40;;;;;;4935464;28;89293;-71
2023/06/04 08:37:10;;;;;;;77.10;52.17;;;19.50;51.40;;;;;;4929010;28;89421;-70
2023/06/04 08:39:36;;;;;;;76.75;52.28;;;19.60;51.80;;;;;;4935787;28;89854;-71
2023/06/04 08:42:05;;;;;;;78.57;52.45;;;19.60;52.10;;;;;;4938173;28;91705;-75
2023/06/04 08:44:31;;;;;;;78.00;52.17;;;19.60;51.80;;;;;;4937509;28;90355;-74
2023/06/04 08:47:03;;;;;;;75.80;52.33;;;19.70;51.60;;;;;;4937353;28;89992;-72
2023/06/04 08:49:38;;;;;;;75.80;52.45;;;19.70;52.00;;;;;;4923115;28;91241;-71
2023/06/04 08:52:05;;;;;;;75.25;52.15;;;19.70;51.90;;;;;;4938327;28;89583;-71
2023/06/04 08:54:32;;;;;;;74.70;52.25;;;19.80;51.90;;;;;;4937310;28;90204;-72
2023/06/04 08:57:00;;;;;;;75.95;52.20;;;19.80;51.80;;;;;;4943527;28;90604;-72
2023/06/04 08:59:27;;;;;;;81.00;52.25;;;19.80;52.10;;;;;;4933774;28;88892;-71
2023/06/04 09:01:56;;;;;;;76.28;52.10;;;19.90;52.20;;;;;;4939486;28;89523;-72
2023/06/04 09:04:23;;;;;;;75.82;51.97;;;19.90;52.30;;;;;;4938961;28;90455;-74
2023/06/04 09:06:49;;;;;;;74.07;51.83;;;19.90;52.40;;;;;;4919801;28;92487;-77
2023/06/04 09:09:17;;;;;;;75.55;52.25;;;20.00;52.20;;;;;;4933501;28;89997;-72
2023/06/04 09:11:51;;;;;;;76.47;52.10;;;20.00;52.20;;;;;;4926039;28;89596;-73
2023/06/04 09:14:17;;;;;;;75.55;52.15;;;20.10;52.50;;;;;;4921202;28;89461;-72
2023/06/04 09:17:01;;;;;;;77.03;51.97;;;20.10;52.30;;;;;;4932129;28;89376;-73
2023/06/04 09:19:27;;;;;;;76.30;51.85;;;20.10;52.70;;;;;;4940246;28;89247;-72
2023/06/04 09:21:58;;;;;;;74.97;51.80;;;20.20;53.00;;;;;;4919892;28;89019;-73
2023/06/04 09:24:39;;;;;;;80.50;52.50;;;20.20;53.10;;;;;;4933054;28;88890;-73
2023/06/04 09:27:16;;;;;;;75.20;52.10;;;20.30;53.60;;;;;;4933947;28;94689;-71
2023/06/04 09:29:58;;;;;;;75.80;52.03;;;20.30;53.90;;;;;;4926785;28;90452;-71
2023/06/04 09:32:29;;;;;;;76.38;52.05;;;20.40;54.10;;;;;;4926115;28;91490;-73
2023/06/04 09:35:13;;;;;;;;;;;20.40;54.00;;;;;;4946560;28;90066;-73
2023/06/04 09:37:52;;;;;;;77.70;52.45;;;20.40;53.60;;;;;;4947251;28;90979;-71
2023/06/04 09:40:18;;;;;;;78.68;52.47;;;20.50;53.50;;;;;;4970369;23;90124;-50
2023/06/04 09:42:54;;;;;;;80.88;52.95;;;20.60;53.70;;;;;;4962156;28;93964;-53
2023/06/04 09:45:35;;;;;;;86.43;54.10;;;20.60;53.70;;;;;;4954041;28;89947;-51
2023/06/04 09:48:02;;;;;;;83.15;53.35;;;20.60;53.70;;;;;;4974435;28;91725;-54
2023/06/04 09:50:30;;;;;;;83.97;53.70;;;20.70;53.30;;;;;;4967340;28;90882;-48
2023/06/04 09:52:56;;;;;;;81.55;53.00;;;20.70;53.10;;;;;;4967951;28;95187;-55
2023/06/04 09:55:22;;;;;;;83.88;53.65;;;20.70;53.00;;;;;;4963663;28;91048;-50
2023/06/04 09:57:49;;;;;;;79.53;53.30;;;20.80;52.90;;;;;;4951128;28;91943;-52
2023/06/04 10:00:22;;;;;;;86.30;53.50;;;20.80;52.40;;;;;;4966358;28;91720;-58
2023/06/04 10:02:50;;;;;;;81.50;53.05;;;20.90;51.70;;;;;;4951771;28;89651;-55
2023/06/04 10:05:16;;;;;;;86.88;56.10;;;20.90;51.30;;;;;;4970635;28;95991;-53
2023/06/04 10:07:46;;;;;;;91.90;56.83;;;20.90;51.60;;;;;;4965393;28;90272;-56
2023/06/04 10:10:17;;;;;;;96.15;57.33;;;20.90;51.60;;;;;;4968418;28;89894;-51
2023/06/04 10:12:45;;;;;;;88.43;55.88;;;20.90;51.70;;;;;;4961038;28;90293;-55
2023/06/04 10:15:13;;;;;;;83.57;54.50;;;21.00;51.70;;;;;;4970000;28;89424;-45
2023/06/04 10:17:40;;;;;;;79.85;54.10;;;21.00;50.10;;;;;;4961976;28;91687;-48
2023/06/04 10:20:10;;;;;;;80.65;53.60;;;21.00;49.60;;;;;;4966269;28;94238;-54
2023/06/04 10:22:36;;;;;;;82.25;53.55;;;21.10;49.00;;;;;;4976682;28;95077;-55
2023/06/04 10:25:04;;;;;;;79.40;53.30;;;21.10;47.90;;;;;;4971006;28;90352;-49
2023/06/04 10:27:31;;;;;;;81.63;53.17;;;21.20;48.20;;;;;;4965503;28;90281;-48
2023/06/04 10:29:58;;;;;;;80.22;53.20;;;21.20;48.20;;;;;;4968499;28;90146;-54
2023/06/04 10:32:28;;;;;;;79.13;53.05;;;21.30;47.90;;;;;;4971015;28;91308;-54
2023/06/04 10:34:54;;;;;;;79.03;53.10;;;21.20;48.40;;;;;;4967019;28;91121;-56
2023/06/04 10:37:24;;;;;;;75.70;52.83;;;21.30;48.60;;;;;;4970292;28;91798;-47
2023/06/04 10:39:57;;;;;;;76.82;52.70;;;21.30;50.00;;;;;;4968716;28;93983;-54
2023/06/04 10:42:25;;;;;;;79.88;52.75;;;21.30;49.90;;;;;;4972929;28;90338;-49
2023/06/04 10:44:52;;;;;;;77.78;52.95;;;21.30;49.80;;;;;;4956699;28;95098;-50
2023/06/04 10:47:26;;;;;;;77.13;53.22;;;21.40;50.10;;;;;;4967848;28;90988;-54
2023/06/04 10:49:53;;;;;;;80.22;53.53;;;21.40;51.60;;;;;;4969858;28;90882;-56
2023/06/04 10:52:20;;;;;;;77.78;53.22;;;21.50;51.90;;;;;;4968451;28;90139;-55
2023/06/04 10:54:53;;;;;;;77.43;53.53;;;21.50;52.10;;;;;;4970143;28;95110;-55
2023/06/04 10:57:19;;;;;;;79.45;53.75;;;21.50;52.00;;;;;;4976397;28;92783;-57
2023/06/04 10:59:58;;;;;;;78.80;53.58;;;21.50;51.70;;;;;;4963477;28;90556;-57
2023/06/04 11:02:24;;;;;;;77.95;53.72;;;21.60;51.90;;;;;;4970891;28;91029;-50
2023/06/04 11:05:06;;;;;;;78.97;54.33;;;21.60;51.80;;;;;;4969484;28;89211;-56
2023/06/04 11:07:46;;;;;;;75.88;53.22;;;21.60;51.70;;;;;;4965515;28;90865;-55
2023/06/04 11:10:12;;;;;;;78.97;54.10;;;21.60;51.60;;;;;;4964226;28;91325;-52
2023/06/04 11:12:56;;;;;;;77.65;53.78;;;21.70;52.10;;;;;;4969175;28;90789;-50
2023/06/04 11:15:22;;;;;;;78.28;53.25;;;21.70;52.20;;;;;;4967479;28;91367;-50
2023/06/04 11:17:55;;;;;;;78.03;53.60;;;21.80;51.60;;;;;;4969562;28;90412;-56
2023/06/04 11:20:22;;;;;;;77.03;53.42;;;21.80;51.40;;;;;;4969469;28;90293;-56
2023/06/04 11:22:55;;;;;;;77.72;53.58;;;21.80;51.20;;;;;;4972501;28;90025;-57
2023/06/04 11:25:23;;;;;;;77.18;53.15;;;21.80;50.90;;;;;;4969819;28;89842;-52
2023/06/04 11:27:51;;;;;;;77.28;53.30;;;21.90;50.60;;;;;;4974595;28;90524;-55
2023/06/04 11:30:17;;;;;;;78.28;53.72;;;21.90;51.30;;;;;;4967842;28;91562;-49
2023/06/04 11:32:43;;;;;;;78.25;53.65;;;21.90;50.40;;;;;;4973024;28;90898;-54
2023/06/04 11:35:11;;;;;;;79.03;53.35;;;21.90;50.40;;;;;;4967767;28;90318;-58
2023/06/04 11:37:37;;;;;;;77.82;53.47;;;22.00;50.30;;;;;;4965118;28;91394;-57
2023/06/04 11:40:15;;;;;;;76.28;53.22;;;22.00;50.70;;;;;;4968717;28;90084;-53
2023/06/04 11:42:43;;;;;;;77.55;53.08;;;22.10;50.60;;;;;;4972734;28;94335;-49
2023/06/04 11:45:12;;;;;;;77.50;53.30;;;22.10;50.80;;;;;;4966874;28;90162;-52
2023/06/04 11:47:37;;;;;;;77.15;53.08;;;22.10;50.60;;;;;;4963354;28;91798;-55
2023/06/04 11:50:04;;;;;;;78.03;53.70;;;22.10;50.70;;;;;;4970492;28;90391;-57
2023/06/04 11:52:29;;;;;;;79.32;53.97;;;22.10;50.60;;;;;;4969845;28;90117;-53
2023/06/04 11:54:55;;;;;;;77.82;53.42;;;22.10;50.90;;;;;;4948032;28;90537;-58
2023/06/04 11:57:21;;;;;;;77.43;53.35;;;22.20;51.20;;;;;;4973807;28;89980;-41
2023/06/04 11:59:47;;;;;;;77.05;53.25;;;22.20;50.90;;;;;;4978992;28;90655;-40
2023/06/04 12:02:13;;;;;;;77.00;53.42;;;22.30;50.80;;;;;;4969266;28;91456;-42
2023/06/04 12:04:39;;;;;;;78.90;53.25;;;22.30;51.00;;;;;;4973732;28;89607;-44
2023/06/04 12:07:06;;;;;;;78.72;53.17;;;22.30;50.30;;;;;;4968778;28;90354;-44
2023/06/04 12:09:37;;;;;;;76.68;53.15;;;22.30;50.70;;;;;;4971974;28;90867;-42
2023/06/04 12:12:07;;;;;;;78.75;53.15;;;22.40;50.80;;;;;;4969743;28;90600;-44
2023/06/04 12:14:33;;;;;;;78.43;53.33;;;22.40;49.80;;;;;;4966142;28;90120;-43
2023/06/04 12:17:06;;;;;;;77.13;53.30;;;22.40;49.20;;;;;;4965740;28;95771;-43
2023/06/04 12:19:31;;;;;;;77.85;53.65;;;22.40;49.80;;;;;;4969514;28;91436;-41
2023/06/04 12:22:02;;;;;;;78.45;54.35;;;22.50;49.70;;;;;;4975746;28;90475;-40
2023/06/04 12:24:28;;;;;;;77.07;53.60;;;22.50;50.00;;;;;;4968976;28;89875;-41
2023/06/04 12:27:14;;;;;;;77.13;53.35;;;22.50;50.00;;;;;;4973440;28;90604;-41
2023/06/04 12:29:40;;;;;;;77.15;53.25;;;22.50;50.00;;;;;;4967064;28;90136;-41